sensor_id;sensor_type;location;lat;lon;timestamp;P1;durP1;ratioP1;P2;durP2;ratioP2
9524;SDS011;15940;48.734;9.112;2022-09-09T00:01:13;2.60;;;1.30;;
9524;SDS011;15940;48.734;9.112;2022-09-09T00:03:53;2.27;;;1.10;;
9524;SDS011;15940;48.734;9.112;2022-09-09T00:06:26;2.10;;;1.07;;
9524;SDS011;15940;48.734;9.112;2022-09-09T00:09:00;4.13;;;1.10;;
9524;SDS011;15940;48.734;9.112;2022-09-09T00:11:36;1.80;;;1.00;;
9524;SDS011;15940;48.734;9.112;2022-09-09T00:14:13;2.80;;;1.20;;
9524;SDS011;15940;48.734;9.112;2022-09-09T00:16:50;3.57;;;1.40;;
9524;SDS011;15940;48.734;9.112;2022-09-09T00:19:23;1.97;;;1.20;;
9524;SDS011;15940;48.734;9.112;2022-09-09T00:22:00;2.77;;;1.37;;
9524;SDS011;15940;48.734;9.112;2022-09-09T00:24:41;2.80;;;1.40;;
9524;SDS011;15940;48.734;9.112;2022-09-09T00:27:14;1.17;;;0.90;;
9524;SDS011;15940;48.734;9.112;2022-09-09T00:29:52;3.20;;;1.30;;
9524;SDS011;15940;48.734;9.112;2022-09-09T00:32:24;2.03;;;1.13;;
9524;SDS011;15940;48.734;9.112;2022-09-09T00:34:56;2.20;;;1.17;;
9524;SDS011;15940;48.734;9.112;2022-09-09T00:37:28;2.77;;;1.10;;
9524;SDS011;15940;48.734;9.112;2022-09-09T00:39:59;1.03;;;1.00;;
9524;SDS011;15940;48.734;9.112;2022-09-09T00:42:35;3.53;;;1.27;;
9524;SDS011;15940;48.734;9.112;2022-09-09T00:45:15;1.53;;;0.83;;
9524;SDS011;15940;48.734;9.112;2022-09-09T00:48:06;1.70;;;1.13;;
9524;SDS011;15940;48.734;9.112;2022-09-09T00:50:40;1.90;;;1.10;;
9524;SDS011;15940;48.734;9.112;2022-09-09T00:53:18;2.00;;;1.10;;
9524;SDS011;15940;48.734;9.112;2022-09-09T00:55:57;1.60;;;1.13;;
9524;SDS011;15940;48.734;9.112;2022-09-09T00:58:33;2.53;;;1.00;;
9524;SDS011;15940;48.734;9.112;2022-09-09T01:01:02;5.10;;;1.10;;
9524;SDS011;15940;48.734;9.112;2022-09-09T01:03:34;2.23;;;1.10;;
9524;SDS011;15940;48.734;9.112;2022-09-09T01:06:11;2.27;;;0.90;;
9524;SDS011;15940;48.734;9.112;2022-09-09T01:08:52;2.37;;;1.17;;
9524;SDS011;15940;48.734;9.112;2022-09-09T01:11:52;3.90;;;1.10;;
9524;SDS011;15940;48.734;9.112;2022-09-09T01:14:44;1.70;;;1.10;;
9524;SDS011;15940;48.734;9.112;2022-09-09T01:17:19;2.23;;;1.10;;
9524;SDS011;15940;48.734;9.112;2022-09-09T01:19:55;2.97;;;0.93;;
9524;SDS011;15940;48.734;9.112;2022-09-09T01:22:34;1.53;;;1.30;;
9524;SDS011;15940;48.734;9.112;2022-09-09T01:25:13;4.63;;;1.13;;
9524;SDS011;15940;48.734;9.112;2022-09-09T01:28:00;2.80;;;1.10;;
9524;SDS011;15940;48.734;9.112;2022-09-09T01:30:30;3.17;;;1.20;;
9524;SDS011;15940;48.734;9.112;2022-09-09T01:33:01;2.83;;;1.13;;
9524;SDS011;15940;48.734;9.112;2022-09-09T01:35:37;2.97;;;1.10;;
9524;SDS011;15940;48.734;9.112;2022-09-09T01:38:11;5.00;;;1.27;;
9524;SDS011;15940;48.734;9.112;2022-09-09T01:40:39;4.27;;;1.37;;
9524;SDS011;15940;48.734;9.112;2022-09-09T01:43:08;4.03;;;1.00;;
9524;SDS011;15940;48.734;9.112;2022-09-09T01:45:35;3.10;;;1.10;;
9524;SDS011;15940;48.734;9.112;2022-09-09T01:48:03;3.00;;;1.10;;
9524;SDS011;15940;48.734;9.112;2022-09-09T01:50:30;2.73;;;1.30;;
9524;SDS011;15940;48.734;9.112;2022-09-09T01:52:58;1.97;;;1.30;;
9524;SDS011;15940;48.734;9.112;2022-09-09T01:55:28;1.13;;;1.00;;
9524;SDS011;15940;48.734;9.112;2022-09-09T01:58:02;2.57;;;1.10;;
9524;SDS011;15940;48.734;9.112;2022-09-09T02:00:50;5.77;;;1.23;;
9524;SDS011;15940;48.734;9.112;2022-09-09T02:03:27;2.43;;;1.20;;
9524;SDS011;15940;48.734;9.112;2022-09-09T02:05:57;3.57;;;1.00;;
9524;SDS011;15940;48.734;9.112;2022-09-09T02:08:38;4.20;;;1.27;;
9524;SDS011;15940;48.734;9.112;2022-09-09T02:11:12;2.53;;;1.30;;
9524;SDS011;15940;48.734;9.112;2022-09-09T02:13:44;2.47;;;1.30;;
9524;SDS011;15940;48.734;9.112;2022-09-09T02:16:15;3.77;;;1.17;;
9524;SDS011;15940;48.734;9.112;2022-09-09T02:18:50;4.13;;;1.17;;
9524;SDS011;15940;48.734;9.112;2022-09-09T02:21:22;2.50;;;1.13;;
9524;SDS011;15940;48.734;9.112;2022-09-09T02:23:51;1.90;;;1.40;;
9524;SDS011;15940;48.734;9.112;2022-09-09T02:26:21;1.97;;;1.07;;
9524;SDS011;15940;48.734;9.112;2022-09-09T02:28:51;1.53;;;0.90;;
9524;SDS011;15940;48.734;9.112;2022-09-09T02:31:23;2.30;;;1.07;;
9524;SDS011;15940;48.734;9.112;2022-09-09T02:33:52;1.90;;;1.10;;
9524;SDS011;15940;48.734;9.112;2022-09-09T02:36:23;3.90;;;1.10;;
9524;SDS011;15940;48.734;9.112;2022-09-09T02:38:52;4.20;;;1.10;;
9524;SDS011;15940;48.734;9.112;2022-09-09T02:41:21;4.10;;;1.30;;
9524;SDS011;15940;48.734;9.112;2022-09-09T02:43:55;2.40;;;1.40;;
9524;SDS011;15940;48.734;9.112;2022-09-09T02:46:25;3.40;;;1.60;;
9524;SDS011;15940;48.734;9.112;2022-09-09T02:49:08;3.03;;;1.10;;
9524;SDS011;15940;48.734;9.112;2022-09-09T02:51:44;3.23;;;1.20;;
9524;SDS011;15940;48.734;9.112;2022-09-09T02:54:21;1.73;;;1.20;;
9524;SDS011;15940;48.734;9.112;2022-09-09T02:56:56;1.30;;;1.20;;
9524;SDS011;15940;48.734;9.112;2022-09-09T02:59:30;1.67;;;1.10;;
9524;SDS011;15940;48.734;9.112;2022-09-09T03:01:58;2.83;;;1.10;;
9524;SDS011;15940;48.734;9.112;2022-09-09T03:04:26;3.13;;;1.20;;
9524;SDS011;15940;48.734;9.112;2022-09-09T03:06:53;2.67;;;1.10;;
9524;SDS011;15940;48.734;9.112;2022-09-09T03:09:19;3.30;;;1.10;;
9524;SDS011;15940;48.734;9.112;2022-09-09T03:11:46;2.67;;;1.10;;
9524;SDS011;15940;48.734;9.112;2022-09-09T03:14:14;2.87;;;1.10;;
9524;SDS011;15940;48.734;9.112;2022-09-09T03:16:42;2.13;;;1.10;;
9524;SDS011;15940;48.734;9.112;2022-09-09T03:19:11;2.77;;;1.10;;
9524;SDS011;15940;48.734;9.112;2022-09-09T03:21:38;1.90;;;0.87;;
9524;SDS011;15940;48.734;9.112;2022-09-09T03:24:05;1.43;;;1.20;;
9524;SDS011;15940;48.734;9.112;2022-09-09T03:26:32;2.80;;;1.03;;
9524;SDS011;15940;48.734;9.112;2022-09-09T03:28:59;2.60;;;1.00;;
9524;SDS011;15940;48.734;9.112;2022-09-09T03:31:26;1.53;;;1.00;;
9524;SDS011;15940;48.734;9.112;2022-09-09T03:33:56;1.03;;;0.83;;
9524;SDS011;15940;48.734;9.112;2022-09-09T03:36:24;2.20;;;0.90;;
9524;SDS011;15940;48.734;9.112;2022-09-09T03:38:53;1.70;;;0.90;;
9524;SDS011;15940;48.734;9.112;2022-09-09T03:41:20;1.77;;;1.03;;
9524;SDS011;15940;48.734;9.112;2022-09-09T03:43:48;2.00;;;1.03;;
9524;SDS011;15940;48.734;9.112;2022-09-09T03:46:16;2.00;;;0.97;;
9524;SDS011;15940;48.734;9.112;2022-09-09T03:48:43;1.80;;;0.73;;
9524;SDS011;15940;48.734;9.112;2022-09-09T03:51:11;1.93;;;1.00;;
9524;SDS011;15940;48.734;9.112;2022-09-09T03:53:39;1.10;;;0.87;;
9524;SDS011;15940;48.734;9.112;2022-09-09T03:56:06;1.17;;;0.93;;
9524;SDS011;15940;48.734;9.112;2022-09-09T03:58:33;4.80;;;1.13;;
9524;SDS011;15940;48.734;9.112;2022-09-09T04:01:02;2.27;;;1.00;;
9524;SDS011;15940;48.734;9.112;2022-09-09T04:03:31;2.13;;;0.93;;
9524;SDS011;15940;48.734;9.112;2022-09-09T04:05:59;3.17;;;1.20;;
9524;SDS011;15940;48.734;9.112;2022-09-09T04:08:30;1.63;;;0.90;;
9524;SDS011;15940;48.734;9.112;2022-09-09T04:10:57;5.53;;;1.30;;
9524;SDS011;15940;48.734;9.112;2022-09-09T04:13:26;1.30;;;1.07;;
9524;SDS011;15940;48.734;9.112;2022-09-09T04:15:54;1.83;;;1.10;;
9524;SDS011;15940;48.734;9.112;2022-09-09T04:18:23;2.00;;;1.00;;
9524;SDS011;15940;48.734;9.112;2022-09-09T04:20:51;2.13;;;1.13;;
9524;SDS011;15940;48.734;9.112;2022-09-09T04:23:19;1.33;;;0.90;;
9524;SDS011;15940;48.734;9.112;2022-09-09T04:25:48;2.73;;;1.00;;
9524;SDS011;15940;48.734;9.112;2022-09-09T04:28:18;2.10;;;1.20;;
9524;SDS011;15940;48.734;9.112;2022-09-09T04:30:47;3.03;;;1.13;;
9524;SDS011;15940;48.734;9.112;2022-09-09T04:33:14;2.03;;;1.10;;
9524;SDS011;15940;48.734;9.112;2022-09-09T04:35:43;3.83;;;1.33;;
9524;SDS011;15940;48.734;9.112;2022-09-09T04:38:12;3.33;;;1.30;;
9524;SDS011;15940;48.734;9.112;2022-09-09T04:40:40;1.60;;;1.30;;
9524;SDS011;15940;48.734;9.112;2022-09-09T04:43:11;4.10;;;1.40;;
9524;SDS011;15940;48.734;9.112;2022-09-09T04:45:39;2.60;;;1.37;;
9524;SDS011;15940;48.734;9.112;2022-09-09T04:48:06;1.27;;;1.17;;
9524;SDS011;15940;48.734;9.112;2022-09-09T04:50:33;2.80;;;1.17;;
9524;SDS011;15940;48.734;9.112;2022-09-09T04:53:00;3.30;;;1.30;;
9524;SDS011;15940;48.734;9.112;2022-09-09T04:55:28;2.10;;;1.13;;
9524;SDS011;15940;48.734;9.112;2022-09-09T04:57:55;5.83;;;1.30;;
9524;SDS011;15940;48.734;9.112;2022-09-09T05:00:24;2.77;;;1.70;;
9524;SDS011;15940;48.734;9.112;2022-09-09T05:02:51;3.67;;;1.40;;
9524;SDS011;15940;48.734;9.112;2022-09-09T05:05:18;3.83;;;1.43;;
9524;SDS011;15940;48.734;9.112;2022-09-09T05:07:45;2.93;;;1.40;;
9524;SDS011;15940;48.734;9.112;2022-09-09T05:10:12;4.27;;;1.47;;
9524;SDS011;15940;48.734;9.112;2022-09-09T05:12:41;3.07;;;1.33;;
9524;SDS011;15940;48.734;9.112;2022-09-09T05:15:08;1.83;;;1.17;;
9524;SDS011;15940;48.734;9.112;2022-09-09T05:17:38;2.57;;;1.20;;
9524;SDS011;15940;48.734;9.112;2022-09-09T05:20:05;5.00;;;1.40;;
9524;SDS011;15940;48.734;9.112;2022-09-09T05:22:33;5.43;;;1.30;;
9524;SDS011;15940;48.734;9.112;2022-09-09T05:25:00;5.47;;;1.37;;
9524;SDS011;15940;48.734;9.112;2022-09-09T05:27:26;3.23;;;1.20;;
9524;SDS011;15940;48.734;9.112;2022-09-09T05:29:56;1.40;;;1.30;;
9524;SDS011;15940;48.734;9.112;2022-09-09T05:32:23;1.77;;;1.20;;
9524;SDS011;15940;48.734;9.112;2022-09-09T05:34:52;1.50;;;1.40;;
9524;SDS011;15940;48.734;9.112;2022-09-09T05:37:19;5.60;;;1.60;;
9524;SDS011;15940;48.734;9.112;2022-09-09T05:39:46;8.13;;;1.73;;
9524;SDS011;15940;48.734;9.112;2022-09-09T05:42:12;2.40;;;1.17;;
9524;SDS011;15940;48.734;9.112;2022-09-09T05:44:40;2.60;;;1.27;;
9524;SDS011;15940;48.734;9.112;2022-09-09T05:47:07;2.67;;;1.27;;
9524;SDS011;15940;48.734;9.112;2022-09-09T05:49:34;1.80;;;1.20;;
9524;SDS011;15940;48.734;9.112;2022-09-09T05:52:03;3.67;;;1.40;;
9524;SDS011;15940;48.734;9.112;2022-09-09T05:54:30;1.63;;;1.20;;
9524;SDS011;15940;48.734;9.112;2022-09-09T05:56:57;3.30;;;1.20;;
9524;SDS011;15940;48.734;9.112;2022-09-09T05:59:24;3.43;;;1.27;;
9524;SDS011;15940;48.734;9.112;2022-09-09T06:01:51;6.90;;;1.30;;
9524;SDS011;15940;48.734;9.112;2022-09-09T06:04:19;3.40;;;1.30;;
9524;SDS011;15940;48.734;9.112;2022-09-09T06:06:49;2.70;;;1.33;;
9524;SDS011;15940;48.734;9.112;2022-09-09T06:09:17;1.90;;;1.20;;
9524;SDS011;15940;48.734;9.112;2022-09-09T06:11:45;9.27;;;1.53;;
9524;SDS011;15940;48.734;9.112;2022-09-09T06:14:12;1.27;;;1.17;;
9524;SDS011;15940;48.734;9.112;2022-09-09T06:16:39;2.33;;;1.40;;
9524;SDS011;15940;48.734;9.112;2022-09-09T06:19:09;4.00;;;1.33;;
9524;SDS011;15940;48.734;9.112;2022-09-09T06:21:37;1.50;;;1.17;;
9524;SDS011;15940;48.734;9.112;2022-09-09T06:24:05;4.33;;;1.20;;
9524;SDS011;15940;48.734;9.112;2022-09-09T06:26:35;6.07;;;1.30;;
9524;SDS011;15940;48.734;9.112;2022-09-09T06:29:05;2.20;;;1.20;;
9524;SDS011;15940;48.734;9.112;2022-09-09T06:31:33;1.87;;;1.20;;
9524;SDS011;15940;48.734;9.112;2022-09-09T06:34:03;3.53;;;1.50;;
9524;SDS011;15940;48.734;9.112;2022-09-09T06:36:32;1.30;;;1.20;;
9524;SDS011;15940;48.734;9.112;2022-09-09T06:39:02;6.03;;;1.67;;
9524;SDS011;15940;48.734;9.112;2022-09-09T06:41:31;1.90;;;1.40;;
9524;SDS011;15940;48.734;9.112;2022-09-09T06:44:00;35.37;;;3.70;;
9524;SDS011;15940;48.734;9.112;2022-09-09T06:46:28;12.67;;;2.20;;
9524;SDS011;15940;48.734;9.112;2022-09-09T06:48:58;3.10;;;1.13;;
9524;SDS011;15940;48.734;9.112;2022-09-09T06:51:25;2.77;;;1.30;;
9524;SDS011;15940;48.734;9.112;2022-09-09T06:53:55;7.73;;;1.47;;
9524;SDS011;15940;48.734;9.112;2022-09-09T06:56:24;3.87;;;1.50;;
9524;SDS011;15940;48.734;9.112;2022-09-09T06:58:53;2.83;;;1.23;;
9524;SDS011;15940;48.734;9.112;2022-09-09T07:01:25;7.65;;;1.50;;
9524;SDS011;15940;48.734;9.112;2022-09-09T07:03:54;8.47;;;2.00;;
9524;SDS011;15940;48.734;9.112;2022-09-09T07:06:24;2.90;;;1.30;;
9524;SDS011;15940;48.734;9.112;2022-09-09T07:08:53;2.27;;;1.10;;
9524;SDS011;15940;48.734;9.112;2022-09-09T07:11:23;1.57;;;1.17;;
9524;SDS011;15940;48.734;9.112;2022-09-09T07:13:52;3.00;;;1.23;;
9524;SDS011;15940;48.734;9.112;2022-09-09T07:16:20;3.63;;;1.57;;
9524;SDS011;15940;48.734;9.112;2022-09-09T07:18:51;5.30;;;1.30;;
9524;SDS011;15940;48.734;9.112;2022-09-09T07:21:23;7.00;;;1.50;;
9524;SDS011;15940;48.734;9.112;2022-09-09T07:23:51;4.13;;;1.60;;
9524;SDS011;15940;48.734;9.112;2022-09-09T07:26:20;3.63;;;1.50;;
9524;SDS011;15940;48.734;9.112;2022-09-09T07:28:49;4.57;;;1.60;;
9524;SDS011;15940;48.734;9.112;2022-09-09T07:31:16;2.70;;;1.50;;
9524;SDS011;15940;48.734;9.112;2022-09-09T07:33:47;2.00;;;1.13;;
9524;SDS011;15940;48.734;9.112;2022-09-09T07:36:16;1.60;;;1.37;;
9524;SDS011;15940;48.734;9.112;2022-09-09T07:38:47;2.23;;;1.13;;
9524;SDS011;15940;48.734;9.112;2022-09-09T07:41:17;3.50;;;1.37;;
9524;SDS011;15940;48.734;9.112;2022-09-09T07:43:47;3.57;;;1.37;;
9524;SDS011;15940;48.734;9.112;2022-09-09T07:46:16;2.13;;;1.37;;
9524;SDS011;15940;48.734;9.112;2022-09-09T07:48:45;5.20;;;1.40;;
9524;SDS011;15940;48.734;9.112;2022-09-09T07:51:18;2.13;;;1.47;;
9524;SDS011;15940;48.734;9.112;2022-09-09T07:53:48;1.83;;;1.20;;
9524;SDS011;15940;48.734;9.112;2022-09-09T07:56:18;5.87;;;1.20;;
9524;SDS011;15940;48.734;9.112;2022-09-09T07:58:47;6.97;;;1.10;;
9524;SDS011;15940;48.734;9.112;2022-09-09T08:01:15;2.20;;;1.17;;
9524;SDS011;15940;48.734;9.112;2022-09-09T08:03:46;3.73;;;1.23;;
9524;SDS011;15940;48.734;9.112;2022-09-09T08:06:19;6.00;;;1.60;;
9524;SDS011;15940;48.734;9.112;2022-09-09T08:08:49;4.43;;;1.60;;
9524;SDS011;15940;48.734;9.112;2022-09-09T08:11:17;3.80;;;1.30;;
9524;SDS011;15940;48.734;9.112;2022-09-09T08:13:45;3.90;;;1.10;;
9524;SDS011;15940;48.734;9.112;2022-09-09T08:16:13;3.60;;;1.20;;
9524;SDS011;15940;48.734;9.112;2022-09-09T08:18:42;2.57;;;1.30;;
9524;SDS011;15940;48.734;9.112;2022-09-09T08:21:10;3.93;;;1.67;;
9524;SDS011;15940;48.734;9.112;2022-09-09T08:23:44;2.43;;;1.13;;
9524;SDS011;15940;48.734;9.112;2022-09-09T08:26:12;4.23;;;1.70;;
9524;SDS011;15940;48.734;9.112;2022-09-09T08:28:41;2.83;;;1.13;;
9524;SDS011;15940;48.734;9.112;2022-09-09T08:31:10;4.97;;;1.47;;
9524;SDS011;15940;48.734;9.112;2022-09-09T08:33:39;3.43;;;1.20;;
9524;SDS011;15940;48.734;9.112;2022-09-09T08:36:08;3.20;;;1.10;;
9524;SDS011;15940;48.734;9.112;2022-09-09T08:38:37;5.80;;;1.63;;
9524;SDS011;15940;48.734;9.112;2022-09-09T08:41:11;2.07;;;1.20;;
9524;SDS011;15940;48.734;9.112;2022-09-09T08:43:59;3.80;;;1.23;;
9524;SDS011;15940;48.734;9.112;2022-09-09T08:46:34;4.07;;;1.40;;
9524;SDS011;15940;48.734;9.112;2022-09-09T08:49:15;9.70;;;2.00;;
9524;SDS011;15940;48.734;9.112;2022-09-09T08:52:05;6.10;;;1.43;;
9524;SDS011;15940;48.734;9.112;2022-09-09T08:54:41;4.83;;;1.30;;
9524;SDS011;15940;48.734;9.112;2022-09-09T08:57:11;2.37;;;1.03;;
9524;SDS011;15940;48.734;9.112;2022-09-09T08:59:45;3.87;;;1.07;;
9524;SDS011;15940;48.734;9.112;2022-09-09T09:02:14;1.53;;;1.00;;
9524;SDS011;15940;48.734;9.112;2022-09-09T09:04:51;2.97;;;1.20;;
9524;SDS011;15940;48.734;9.112;2022-09-09T09:07:33;4.20;;;1.57;;
9524;SDS011;15940;48.734;9.112;2022-09-09T09:10:16;2.60;;;1.30;;
9524;SDS011;15940;48.734;9.112;2022-09-09T09:13:02;3.90;;;1.50;;
9524;SDS011;15940;48.734;9.112;2022-09-09T09:15:30;3.23;;;1.50;;
9524;SDS011;15940;48.734;9.112;2022-09-09T09:18:03;4.00;;;1.40;;
9524;SDS011;15940;48.734;9.112;2022-09-09T09:20:32;2.33;;;1.33;;
9524;SDS011;15940;48.734;9.112;2022-09-09T09:23:06;3.90;;;1.10;;
9524;SDS011;15940;48.734;9.112;2022-09-09T09:25:45;3.33;;;0.93;;
9524;SDS011;15940;48.734;9.112;2022-09-09T09:28:15;2.43;;;1.20;;
9524;SDS011;15940;48.734;9.112;2022-09-09T09:30:48;2.80;;;1.40;;
9524;SDS011;15940;48.734;9.112;2022-09-09T09:33:20;3.13;;;1.17;;
9524;SDS011;15940;48.734;9.112;2022-09-09T09:35:52;1.70;;;1.10;;
9524;SDS011;15940;48.734;9.112;2022-09-09T09:38:20;2.07;;;1.10;;
9524;SDS011;15940;48.734;9.112;2022-09-09T09:40:50;2.60;;;1.20;;
9524;SDS011;15940;48.734;9.112;2022-09-09T09:43:21;2.57;;;1.30;;
9524;SDS011;15940;48.734;9.112;2022-09-09T09:45:52;1.30;;;1.20;;
9524;SDS011;15940;48.734;9.112;2022-09-09T09:48:20;3.03;;;1.40;;
9524;SDS011;15940;48.734;9.112;2022-09-09T09:50:48;2.00;;;1.20;;
9524;SDS011;15940;48.734;9.112;2022-09-09T09:53:19;3.70;;;1.40;;
9524;SDS011;15940;48.734;9.112;2022-09-09T09:55:52;3.27;;;1.53;;
9524;SDS011;15940;48.734;9.112;2022-09-09T09:58:25;2.80;;;1.13;;
9524;SDS011;15940;48.734;9.112;2022-09-09T10:00:57;3.50;;;1.20;;
9524;SDS011;15940;48.734;9.112;2022-09-09T10:03:25;2.97;;;1.40;;
9524;SDS011;15940;48.734;9.112;2022-09-09T10:05:55;3.77;;;1.50;;
9524;SDS011;15940;48.734;9.112;2022-09-09T10:08:23;3.07;;;1.40;;
9524;SDS011;15940;48.734;9.112;2022-09-09T10:10:53;3.13;;;1.00;;
9524;SDS011;15940;48.734;9.112;2022-09-09T10:13:35;4.60;;;1.50;;
9524;SDS011;15940;48.734;9.112;2022-09-09T10:16:18;3.43;;;1.10;;
9524;SDS011;15940;48.734;9.112;2022-09-09T10:18:59;2.63;;;1.20;;
9524;SDS011;15940;48.734;9.112;2022-09-09T10:21:36;2.87;;;1.40;;
9524;SDS011;15940;48.734;9.112;2022-09-09T10:24:50;1.43;;;1.10;;
9524;SDS011;15940;48.734;9.112;2022-09-09T10:27:46;1.97;;;1.30;;
9524;SDS011;15940;48.734;9.112;2022-09-09T10:30:35;3.37;;;1.27;;
9524;SDS011;15940;48.734;9.112;2022-09-09T10:33:15;2.47;;;1.23;;
9524;SDS011;15940;48.734;9.112;2022-09-09T10:35:53;1.77;;;1.10;;
9524;SDS011;15940;48.734;9.112;2022-09-09T10:38:37;4.50;;;1.33;;
9524;SDS011;15940;48.734;9.112;2022-09-09T10:41:13;3.17;;;1.27;;
9524;SDS011;15940;48.734;9.112;2022-09-09T10:43:58;1.73;;;1.20;;
9524;SDS011;15940;48.734;9.112;2022-09-09T10:46:55;1.80;;;1.30;;
9524;SDS011;15940;48.734;9.112;2022-09-09T10:49:48;4.60;;;1.30;;
9524;SDS011;15940;48.734;9.112;2022-09-09T10:52:35;2.67;;;1.30;;
9524;SDS011;15940;48.734;9.112;2022-09-09T10:55:10;5.57;;;1.57;;
9524;SDS011;15940;48.734;9.112;2022-09-09T10:57:43;3.37;;;1.50;;
9524;SDS011;15940;48.734;9.112;2022-09-09T11:00:15;6.57;;;1.60;;
9524;SDS011;15940;48.734;9.112;2022-09-09T11:02:47;2.50;;;1.10;;
9524;SDS011;15940;48.734;9.112;2022-09-09T11:05:20;3.07;;;1.43;;
9524;SDS011;15940;48.734;9.112;2022-09-09T11:07:51;3.13;;;1.50;;
9524;SDS011;15940;48.734;9.112;2022-09-09T11:10:24;2.53;;;1.20;;
9524;SDS011;15940;48.734;9.112;2022-09-09T11:13:01;1.43;;;1.10;;
9524;SDS011;15940;48.734;9.112;2022-09-09T11:15:35;2.60;;;1.33;;
9524;SDS011;15940;48.734;9.112;2022-09-09T11:18:10;7.10;;;1.20;;
9524;SDS011;15940;48.734;9.112;2022-09-09T11:20:42;2.43;;;1.03;;
9524;SDS011;15940;48.734;9.112;2022-09-09T11:23:11;3.07;;;1.13;;
9524;SDS011;15940;48.734;9.112;2022-09-09T11:25:43;4.63;;;1.07;;
9524;SDS011;15940;48.734;9.112;2022-09-09T11:28:21;2.60;;;1.07;;
9524;SDS011;15940;48.734;9.112;2022-09-09T11:31:13;1.10;;;0.80;;
9524;SDS011;15940;48.734;9.112;2022-09-09T11:34:03;1.27;;;0.93;;
9524;SDS011;15940;48.734;9.112;2022-09-09T11:36:52;4.30;;;1.10;;
9524;SDS011;15940;48.734;9.112;2022-09-09T11:39:43;4.23;;;0.80;;
9524;SDS011;15940;48.734;9.112;2022-09-09T11:42:40;2.27;;;0.57;;
9524;SDS011;15940;48.734;9.112;2022-09-09T11:45:08;1.80;;;0.60;;
9524;SDS011;15940;48.734;9.112;2022-09-09T11:47:51;0.57;;;0.47;;
9524;SDS011;15940;48.734;9.112;2022-09-09T11:50:28;0.50;;;0.43;;
9524;SDS011;15940;48.734;9.112;2022-09-09T11:53:03;0.80;;;0.80;;
9524;SDS011;15940;48.734;9.112;2022-09-09T11:55:46;0.93;;;0.40;;
9524;SDS011;15940;48.734;9.112;2022-09-09T11:58:16;1.03;;;0.43;;
9524;SDS011;15940;48.734;9.112;2022-09-09T12:00:46;0.90;;;0.60;;
9524;SDS011;15940;48.734;9.112;2022-09-09T12:03:39;1.33;;;0.70;;
9524;SDS011;15940;48.734;9.112;2022-09-09T12:06:13;0.70;;;0.60;;
9524;SDS011;15940;48.734;9.112;2022-09-09T12:08:47;1.00;;;0.90;;
9524;SDS011;15940;48.734;9.112;2022-09-09T12:11:23;1.43;;;1.00;;
9524;SDS011;15940;48.734;9.112;2022-09-09T12:13:52;2.00;;;0.77;;
9524;SDS011;15940;48.734;9.112;2022-09-09T12:16:30;0.90;;;0.70;;
9524;SDS011;15940;48.734;9.112;2022-09-09T12:19:03;5.20;;;1.20;;
9524;SDS011;15940;48.734;9.112;2022-09-09T12:21:36;3.67;;;0.70;;
9524;SDS011;15940;48.734;9.112;2022-09-09T12:24:13;2.40;;;0.67;;
9524;SDS011;15940;48.734;9.112;2022-09-09T12:26:47;1.33;;;0.70;;
9524;SDS011;15940;48.734;9.112;2022-09-09T12:29:24;3.50;;;0.90;;
9524;SDS011;15940;48.734;9.112;2022-09-09T12:32:00;2.83;;;0.87;;
9524;SDS011;15940;48.734;9.112;2022-09-09T12:34:34;2.77;;;0.60;;
9524;SDS011;15940;48.734;9.112;2022-09-09T12:39:56;0.87;;;0.70;;
9524;SDS011;15940;48.734;9.112;2022-09-09T12:42:25;3.37;;;0.87;;
9524;SDS011;15940;48.734;9.112;2022-09-09T12:44:53;1.50;;;0.83;;
9524;SDS011;15940;48.734;9.112;2022-09-09T12:47:23;0.97;;;0.67;;
9524;SDS011;15940;48.734;9.112;2022-09-09T12:49:59;2.83;;;0.80;;
9524;SDS011;15940;48.734;9.112;2022-09-09T12:52:29;2.10;;;1.10;;
9524;SDS011;15940;48.734;9.112;2022-09-09T12:55:01;1.47;;;1.10;;
9524;SDS011;15940;48.734;9.112;2022-09-09T12:57:31;6.10;;;1.30;;
9524;SDS011;15940;48.734;9.112;2022-09-09T13:00:06;1.63;;;0.90;;
9524;SDS011;15940;48.734;9.112;2022-09-09T13:02:48;1.83;;;0.90;;
9524;SDS011;15940;48.734;9.112;2022-09-09T13:05:18;2.57;;;1.10;;
9524;SDS011;15940;48.734;9.112;2022-09-09T13:07:49;2.40;;;0.90;;
9524;SDS011;15940;48.734;9.112;2022-09-09T13:10:20;1.57;;;0.87;;
9524;SDS011;15940;48.734;9.112;2022-09-09T13:12:54;0.73;;;0.73;;
9524;SDS011;15940;48.734;9.112;2022-09-09T13:15:23;2.27;;;1.00;;
9524;SDS011;15940;48.734;9.112;2022-09-09T13:17:55;2.00;;;1.27;;
9524;SDS011;15940;48.734;9.112;2022-09-09T13:20:26;2.73;;;1.00;;
9524;SDS011;15940;48.734;9.112;2022-09-09T13:22:55;1.80;;;0.77;;
9524;SDS011;15940;48.734;9.112;2022-09-09T13:25:23;2.07;;;0.83;;
9524;SDS011;15940;48.734;9.112;2022-09-09T13:27:53;0.87;;;0.80;;
9524;SDS011;15940;48.734;9.112;2022-09-09T13:30:24;2.40;;;0.97;;
9524;SDS011;15940;48.734;9.112;2022-09-09T13:33:01;1.43;;;0.80;;
9524;SDS011;15940;48.734;9.112;2022-09-09T13:35:45;4.33;;;1.30;;
9524;SDS011;15940;48.734;9.112;2022-09-09T13:38:16;1.43;;;0.90;;
9524;SDS011;15940;48.734;9.112;2022-09-09T13:40:56;4.73;;;0.83;;
9524;SDS011;15940;48.734;9.112;2022-09-09T13:43:27;1.00;;;0.73;;
9524;SDS011;15940;48.734;9.112;2022-09-09T13:45:56;0.63;;;0.43;;
9524;SDS011;15940;48.734;9.112;2022-09-09T13:48:26;0.73;;;0.60;;
9524;SDS011;15940;48.734;9.112;2022-09-09T13:50:59;0.87;;;0.80;;
9524;SDS011;15940;48.734;9.112;2022-09-09T13:53:31;2.77;;;0.90;;
9524;SDS011;15940;48.734;9.112;2022-09-09T13:55:58;2.80;;;0.80;;
9524;SDS011;15940;48.734;9.112;2022-09-09T13:58:26;1.43;;;0.77;;
9524;SDS011;15940;48.734;9.112;2022-09-09T14:00:53;1.93;;;0.90;;
9524;SDS011;15940;48.734;9.112;2022-09-09T14:03:22;2.27;;;0.70;;
9524;SDS011;15940;48.734;9.112;2022-09-09T14:05:49;1.43;;;0.70;;
9524;SDS011;15940;48.734;9.112;2022-09-09T14:08:20;1.57;;;0.87;;
9524;SDS011;15940;48.734;9.112;2022-09-09T14:10:52;1.33;;;0.63;;
9524;SDS011;15940;48.734;9.112;2022-09-09T14:13:22;1.37;;;0.70;;
9524;SDS011;15940;48.734;9.112;2022-09-09T14:15:49;1.80;;;0.70;;
9524;SDS011;15940;48.734;9.112;2022-09-09T14:18:16;2.10;;;0.90;;
9524;SDS011;15940;48.734;9.112;2022-09-09T14:20:43;1.43;;;0.67;;
9524;SDS011;15940;48.734;9.112;2022-09-09T14:23:11;0.57;;;0.57;;
9524;SDS011;15940;48.734;9.112;2022-09-09T14:25:41;1.60;;;0.80;;
9524;SDS011;15940;48.734;9.112;2022-09-09T14:28:11;1.10;;;0.70;;
9524;SDS011;15940;48.734;9.112;2022-09-09T14:30:39;1.40;;;0.57;;
9524;SDS011;15940;48.734;9.112;2022-09-09T14:33:09;0.97;;;0.60;;
9524;SDS011;15940;48.734;9.112;2022-09-09T14:35:38;2.17;;;0.80;;
9524;SDS011;15940;48.734;9.112;2022-09-09T14:38:06;1.07;;;0.70;;
9524;SDS011;15940;48.734;9.112;2022-09-09T14:40:34;2.00;;;0.50;;
9524;SDS011;15940;48.734;9.112;2022-09-09T14:43:02;1.23;;;0.70;;
9524;SDS011;15940;48.734;9.112;2022-09-09T14:45:31;1.13;;;0.80;;
9524;SDS011;15940;48.734;9.112;2022-09-09T14:48:01;1.57;;;0.70;;
9524;SDS011;15940;48.734;9.112;2022-09-09T14:50:29;1.63;;;0.57;;
9524;SDS011;15940;48.734;9.112;2022-09-09T14:52:56;0.70;;;0.60;;
9524;SDS011;15940;48.734;9.112;2022-09-09T14:55:23;1.70;;;0.70;;
9524;SDS011;15940;48.734;9.112;2022-09-09T14:57:50;2.27;;;0.70;;
9524;SDS011;15940;48.734;9.112;2022-09-09T15:00:17;3.83;;;0.80;;
9524;SDS011;15940;48.734;9.112;2022-09-09T15:02:46;1.37;;;0.70;;
9524;SDS011;15940;48.734;9.112;2022-09-09T15:05:13;2.83;;;0.50;;
9524;SDS011;15940;48.734;9.112;2022-09-09T15:07:41;1.93;;;0.90;;
9524;SDS011;15940;48.734;9.112;2022-09-09T15:10:09;0.67;;;0.63;;
9524;SDS011;15940;48.734;9.112;2022-09-09T15:12:36;1.23;;;0.70;;
9524;SDS011;15940;48.734;9.112;2022-09-09T15:15:03;2.77;;;0.83;;
9524;SDS011;15940;48.734;9.112;2022-09-09T15:17:31;1.70;;;1.03;;
9524;SDS011;15940;48.734;9.112;2022-09-09T15:20:00;3.53;;;0.90;;
9524;SDS011;15940;48.734;9.112;2022-09-09T15:22:27;1.27;;;0.90;;
9524;SDS011;15940;48.734;9.112;2022-09-09T15:24:54;3.40;;;1.07;;
9524;SDS011;15940;48.734;9.112;2022-09-09T15:27:21;3.43;;;1.10;;
9524;SDS011;15940;48.734;9.112;2022-09-09T15:29:48;2.63;;;1.10;;
9524;SDS011;15940;48.734;9.112;2022-09-09T15:32:16;1.37;;;0.80;;